Noatak, AK

3:03 AM AKST on February 12, 2016 (GMT -0900)
Noatak | | Change Station
CLOSE
Current Station
Airport
Location: Noatak,
Elevation: 85 ft
Nearby Weather Stations

Elev 85 ft 67.57 °N, 162.98 °W | Updated 7 minutes ago

Overcast
Overcast
-8 °F
Feels Like -8 °F
N
0
Wind Variable Wind from North

Today
High -- | Low -- °F
--% Chance of Precip.
Yesterday
High -- | Low -- °F
Precip. -- in
Pressure 29.70 in
Visibility 10.0 miles
Clouds Mostly Cloudy 1000 ft
Overcast 3900 ft
Dew Point -15 °F
Humidity 71%
Rainfall 0.00 in
Snow Depth Not available.
10:19 AM 5:53 PM
Waxing Crescent, 20% visible
METAR PAWN 121156Z AUTO 00000KT 10SM BKN010 OVC039 M22/M26 A2970 RMK AO1 11210 21260 57010
Pressure 29.70 in
Visibility 10.0 miles
Clouds Mostly Cloudy 1000 ft
Overcast 3900 ft
Dew Point -15 °F
Humidity 71%
Rainfall 0.00 in
Snow Depth Not available.
10:19 AM 5:53 PM
Waxing Crescent, 20% visible
METAR PAWN 121156Z AUTO 00000KT 10SM BKN010 OVC039 M22/M26 A2970 RMK AO1 11210 21260 57010

10-Day Weather Forecast

Almanac

Astronomy

Feb. 12, 2016 Rise Set
Actual Time
Civil Twilight
Nautical Twilight
Astronomical Twilight
Moon
Length of Visible Light
Length of Day
Tomorrow will be .
, % of the Moon is Illuminated

Today's Extremes

State Highs State Lows

Community

WunderPhotos

Upload Photos

1,892,294 photos uploaded!

WunderBlog® & News

Nearby

Air Quality

  Air Quality AQ Index Pollutant
Not available.

Snow Depth

Station Depth Elevation

Earthquake Activity

City Distance Mag. Time & Date
Minimum magnitude displayed is 2.5.

Coastal Water Temperatures

Place Temperature

Stations

Nearby Weather Stations

Station Location Temp. Windchill Dew Point Humidity Wind Precip. Elev Updated Type
                   

Watches & Warnings

There are currently no watches in effect.